Time;durP1;ratioP1;P1;durP2;ratioP2;P2;SDS_P1;SDS_P2;PMS_P1;PMS_P2;Temp;Humidity;BMP_temperature;BMP_pressure;BME280_temperature;BME280_humidity;BME280_pressure;Samples;Min_cycle;Max_cycle;Signal;HPM_P1;HPM_P2
2021/04/01 00:11:50;;;;;;;11.23;7.80;;;;;;;20.66;35.52;101106.16;31128492;28;20303;-57
2021/04/01 00:26:51;;;;;;;10.30;7.15;;;;;;;20.64;35.62;101094.91;31134204;28;20616;-62
2021/04/01 00:41:52;;;;;;;10.38;7.85;;;;;;;20.61;35.83;101085.44;31131171;28;20038;-61
2021/04/01 00:56:53;;;;;;;9.63;7.33;;;;;;;20.59;36.12;101086.53;31013729;28;20045;-61
2021/04/01 01:11:54;;;;;;;8.30;7.13;;;;;;;20.58;36.33;101059.31;30978331;28;20340;-61
2021/04/01 01:26:55;;;;;;;10.50;7.90;;;;;;;20.57;36.54;101043.56;31006207;28;20274;-56
2021/04/01 01:41:56;;;;;;;10.03;7.60;;;;;;;20.56;36.62;101033.97;31004398;28;20030;-60
2021/04/01 01:56:57;;;;;;;9.75;7.60;;;;;;;20.54;36.73;101031.44;31121436;28;20350;-59
2021/04/01 02:11:58;;;;;;;9.30;7.27;;;;;;;20.51;36.91;101032.56;31120790;28;20049;-59
2021/04/01 02:26:59;;;;;;;9.87;7.53;;;;;;;20.51;37.12;101021.16;31120859;28;20291;-59
2021/04/01 02:42:00;;;;;;;9.63;7.10;;;;;;;20.50;37.21;101019.47;31120784;28;20293;-60
2021/04/01 02:57:18;;;;;;;11.33;7.60;;;;;;;20.46;37.21;101015.47;31005122;28;20289;-60
2021/04/01 03:12:18;;;;;;;9.98;7.20;;;;;;;20.46;37.36;101004.91;30993163;28;20617;-57
2021/04/01 03:27:19;;;;;;;11.30;7.10;;;;;;;20.45;37.40;101003.22;30975798;28;20034;-60
2021/04/01 03:42:21;;;;;;;9.23;7.10;;;;;;;20.42;37.36;100993.75;30977212;28;20763;-59
2021/04/01 03:57:22;;;;;;;9.70;6.90;;;;;;;20.41;37.19;100991.25;31112875;28;20343;-57
2021/04/01 04:12:39;;;;;;;9.32;7.18;;;;;;;20.41;37.51;100997.38;31098126;28;20050;-55
2021/04/01 04:42:56;;;;;;;8.23;6.83;;;;;;;20.39;37.81;100969.44;30997422;28;20026;-60
2021/04/01 04:58:23;;;;;;;8.97;7.03;;;;;;;20.39;37.64;100966.81;31126939;28;20151;-59
2021/04/01 05:13:18;;;;;;;8.30;6.80;;;;;;;20.39;37.60;100987.94;31146490;28;20305;-60
2021/04/01 05:28:37;;;;;;;7.82;6.50;;;;;;;20.41;37.89;100996.53;31143621;28;20026;-59
2021/04/01 05:43:43;;;;;;;8.35;6.28;;;;;;;20.44;37.71;100991.81;31166245;28;20501;-61
2021/04/01 05:59:17;;;;;;;8.37;6.33;;;;;;;20.52;37.40;101001.69;31097418;28;20386;-61
2021/04/01 06:14:33;;;;;;;16.95;11.07;;;;;;;20.32;33.53;100992.03;31121372;28;20046;-60
2021/04/01 06:29:36;;;;;;;22.00;12.50;;;;;;;19.35;32.46;101031.84;31117855;28;20044;-58
2021/04/01 06:44:46;;;;;;;22.58;13.00;;;;;;;19.19;32.65;101051.53;31138101;28;20065;-57
2021/04/01 07:00:07;;;;;;;23.13;13.68;;;;;;;19.28;33.71;101047.31;31141465;28;20051;-60
2021/04/01 07:15:13;;;;;;;16.25;10.25;;;;;;;19.66;36.32;101017.78;31191283;28;20512;-61
2021/04/01 07:46:09;;;;;;;17.40;10.45;;;;;;;20.42;33.90;101033.34;31146460;28;20034;-55
2021/04/01 08:01:15;;;;;;;15.20;9.88;;;;;;;20.71;34.65;101024.75;31095161;28;21268;-61
2021/04/01 08:16:16;;;;;;;13.80;9.45;;;;;;;21.26;32.77;101018.97;31073912;28;20093;-58
2021/04/01 08:31:37;;;;;;;15.82;9.73;;;;;;;22.01;31.78;100990.03;31053144;28;20183;-56
2021/04/01 08:46:50;;;;;;;16.88;11.50;;;;;;;21.59;31.77;101015.06;31063297;28;20187;-58
2021/04/01 09:01:52;;;;;;;12.75;8.60;;;;;;;21.05;33.80;101035.78;31064441;28;20081;-57
2021/04/01 09:17:08;;;;;;;12.95;7.65;;;;;;;20.83;34.79;101005.16;31097993;28;20078;-62
2021/04/01 09:32:11;;;;;;;10.20;6.17;;;;;;;20.88;35.05;101018.78;31044669;28;20538;-63
2021/04/01 09:47:15;;;;;;;9.93;6.15;;;;;;;20.99;35.13;101003.78;31050061;28;20670;-63
2021/04/01 10:02:29;;;;;;;9.50;5.85;;;;;;;21.22;35.07;101013.13;31093601;28;20427;-60
2021/04/01 10:17:30;;;;;;;9.43;7.00;;;;;;;22.26;33.33;100997.34;31163875;28;20063;-59
2021/04/01 10:32:38;;;;;;;10.17;7.17;;;;;;;21.62;34.77;100975.09;31154650;28;20034;-58
2021/04/01 10:48:02;;;;;;;11.82;6.57;;;;;;;21.32;35.32;100982.22;31183005;28;20419;-61
2021/04/01 11:03:04;;;;;;;8.15;6.38;;;;;;;21.13;35.86;100975.13;31147973;28;20504;-63
2021/04/01 11:18:15;;;;;;;18.75;10.93;;;;;;;20.99;35.61;100927.16;31142287;28;20041;-64
2021/04/01 11:33:20;;;;;;;17.45;11.27;;;;;;;20.76;35.80;100948.56;31152469;28;20025;-61
2021/04/01 11:48:21;;;;;;;15.90;9.57;;;;;;;20.81;36.10;100954.25;31143116;28;20037;-60
2021/04/01 12:03:31;;;;;;;20.17;12.87;;;;;;;20.73;35.03;100937.41;31190369;28;20037;-63
2021/04/01 12:18:41;;;;;;;19.83;12.40;;;;;;;20.66;35.10;100945.91;31170696;28;20652;-63
2021/04/01 12:33:49;;;;;;;13.10;8.93;;;;;;;20.69;36.16;100952.72;31164970;28;20542;-65
2021/04/01 12:48:54;;;;;;;11.93;7.97;;;;;;;21.47;35.21;100947.47;31165960;28;20026;-61
2021/04/01 13:03:57;;;;;;;14.00;9.00;;;;;;;21.82;34.60;100930.91;31078136;28;20341;-60
2021/04/01 13:18:58;;;;;;;16.55;9.48;;;;;;;21.56;35.48;100928.09;31073498;28;526366;-59
2021/04/01 13:34:03;;;;;;;16.57;10.37;;;;;;;21.38;35.89;100942.97;31088167;28;20050;-59
2021/04/01 13:49:04;;;;;;;19.35;12.32;;;;;;;21.21;35.83;100957.72;31084950;28;20656;-62
2021/04/01 14:08:54;;;;;;;19.70;12.43;;;;;;;21.16;36.40;100975.81;31062618;28;20526;-60
2021/04/01 14:19:44;;;;;;;21.52;13.25;;;;;;;21.10;36.25;100999.19;31081017;28;20296;-62
2021/04/01 14:34:45;;;;;;;19.05;13.05;;;;;;;21.01;36.70;101005.31;31068666;28;20503;-62
2021/04/01 14:49:46;;;;;;;21.10;14.53;;;;;;;21.05;36.19;101017.28;31065440;28;20045;-62
2021/04/01 15:04:47;;;;;;;23.10;16.50;;;;;;;21.02;36.05;101037.84;31035587;28;20293;-62
2021/04/01 15:19:48;;;;;;;21.25;14.85;;;;;;;20.95;36.54;101053.41;31059310;28;20046;-61
2021/04/01 15:34:49;;;;;;;18.53;13.10;;;;;;;20.87;36.68;101077.06;31064013;28;20435;-60
2021/04/01 15:49:51;;;;;;;18.20;11.52;;;;;;;20.69;37.03;101105.91;31056169;28;20771;-61
2021/04/01 16:04:52;;;;;;;14.32;10.25;;;;;;;20.50;37.46;101139.16;31033134;28;20050;-62
2021/04/01 16:19:53;;;;;;;13.23;9.30;;;;;;;20.39;37.32;101149.78;31052669;28;20042;-62
2021/04/01 16:34:54;;;;;;;9.40;6.80;;;;;;;20.35;37.50;101160.75;31069748;28;20301;-62
2021/04/01 16:49:55;;;;;;;7.80;5.33;;;;;;;20.30;37.49;101169.06;31055713;28;20312;-62
2021/04/01 17:04:56;;;;;;;12.00;5.17;;;;;;;20.30;38.18;101184.91;31146006;28;20284;-60
2021/04/01 17:19:57;;;;;;;8.40;4.47;;;;;;;20.29;38.07;101199.91;31195323;28;20307;-61
2021/04/01 17:34:58;;;;;;;7.80;4.87;;;;;;;19.18;36.89;101204.50;31175698;28;20292;-60
2021/04/01 17:49:59;;;;;;;7.10;4.07;;;;;;;18.33;37.68;101220.66;31138167;28;20296;-57
2021/04/01 18:05:20;;;;;;;5.63;3.38;;;;;;;18.53;38.86;101242.81;31121779;28;20288;-61
2021/04/01 18:35:50;;;;;;;8.82;5.45;;;;;;;19.50;37.53;101301.31;31099381;28;20045;-61
2021/04/01 18:51:07;;;;;;;5.25;3.78;;;;;;;19.65;37.55;101308.84;31091471;28;20046;-58
2021/04/01 19:06:17;;;;;;;5.22;3.33;;;;;;;19.77;37.64;101325.53;31112523;28;20041;-62
2021/04/01 19:21:41;;;;;;;4.40;3.13;;;;;;;19.85;37.97;101338.91;31111778;28;20042;-60
2021/04/01 19:36:42;;;;;;;4.57;2.85;;;;;;;19.92;37.87;101354.28;31137410;28;20034;-60
2021/04/01 19:51:45;;;;;;;4.03;2.73;;;;;;;19.94;37.97;101371.66;31088224;28;20048;-62
2021/04/01 20:06:46;;;;;;;4.40;2.40;;;;;;;19.99;38.43;101387.94;31120055;28;20291;-60
2021/04/01 20:21:47;;;;;;;3.60;2.30;;;;;;;20.00;38.04;101391.47;31121794;28;20045;-60
2021/04/01 20:36:48;;;;;;;4.35;2.53;;;;;;;20.03;38.23;101407.88;31144181;28;20485;-62
2021/04/01 20:51:49;;;;;;;4.20;3.00;;;;;;;20.02;38.23;101413.25;31101342;28;20392;-61
2021/04/01 21:06:50;;;;;;;4.60;2.67;;;;;;;20.01;38.28;101430.91;31126803;28;20087;-58
2021/04/01 21:21:51;;;;;;;7.87;2.30;;;;;;;20.03;37.96;101451.91;31096058;28;20053;-61
2021/04/01 21:36:52;;;;;;;4.43;1.80;;;;;;;20.06;38.48;101464.84;31106442;28;20299;-59
2021/04/01 21:51:53;;;;;;;3.23;1.70;;;;;;;19.99;36.96;101482.13;31140880;28;20639;-60
2021/04/01 22:06:54;;;;;;;2.63;1.42;;;;;;;19.98;36.59;101498.91;31224511;28;20276;-61
2021/04/01 22:21:55;;;;;;;3.10;1.50;;;;;;;19.97;37.25;101508.59;31182203;28;20061;-62
2021/04/01 22:36:56;;;;;;;3.77;1.70;;;;;;;19.96;37.31;101512.22;31108975;28;20293;-62
2021/04/01 22:51:57;;;;;;;2.70;1.37;;;;;;;19.95;37.64;101497.38;31100018;28;20293;-62
2021/04/01 23:06:58;;;;;;;2.72;1.30;;;;;;;19.94;37.82;101508.03;31127869;28;20342;-61
2021/04/01 23:21:59;;;;;;;2.50;1.35;;;;;;;19.93;37.71;101520.38;31128996;28;20113;-61
2021/04/01 23:37:00;;;;;;;3.40;1.20;;;;;;;19.92;37.60;101513.41;31180897;28;20480;-61
2021/04/01 23:52:01;;;;;;;3.38;1.20;;;;;;;19.88;37.64;101527.78;31185007;28;20300;-62
